Terminal Aerodrome Forecast
Issued by NWS Atlanta, GA

Home | Current Version | Previous Version | Text Only | Print | Product List | Glossary On
Versions: 1 2 3 4 5 6 7 8 9 10 11 12 13 14 15 16 17
000
FTUS42 KFFC 011100
TAFMCN
TAF
KMCN 011136Z 0112/0212 31012G25KT P6SM VCSH BKN045
     FM011600 32018G33KT P6SM BKN050
     FM012000 32018G30KT P6SM SCT060
     FM020000 33015G25KT P6SM FEW070
     FM020600 32010KT P6SM SKC=

USA.gov is the U.S. government's official web portal to all federal, state and local government web resources and services.